createdAt,value
2023-05-21T00:19:50.796Z,9.762686
2023-05-21T00:20:50.750Z,9.762802
2023-05-21T00:21:50.741Z,9.762643
2023-05-21T00:22:50.744Z,9.762784
2023-05-21T00:23:50.726Z,9.762623
2023-05-21T00:24:50.756Z,9.762678
2023-05-21T00:25:50.695Z,9.762687
2023-05-21T00:26:50.693Z,9.762730
2023-05-21T00:27:50.679Z,9.762691
2023-05-21T00:28:50.684Z,9.762677
2023-05-21T00:29:50.664Z,9.762704
2023-05-21T00:30:50.657Z,9.762689
2023-05-21T00:31:50.666Z,9.762684
2023-05-21T00:32:50.676Z,9.762685
2023-05-21T00:33:50.627Z,9.762797
2023-05-21T00:34:50.615Z,9.762779
2023-05-21T00:35:50.610Z,9.762918
2023-05-21T00:36:50.601Z,9.762757
2023-05-21T00:37:50.590Z,9.762793
2023-05-21T00:38:50.577Z,9.762793
2023-05-21T00:39:50.581Z,9.762869
2023-05-21T00:40:50.555Z,9.762786
2023-05-21T00:41:50.542Z,9.762760
2023-05-21T00:42:50.560Z,9.762766
2023-05-21T00:43:50.521Z,9.762958
2023-05-21T00:44:50.512Z,9.762737
2023-05-21T00:45:50.526Z,9.762682
2023-05-21T00:46:50.493Z,9.762464
2023-05-21T00:47:50.519Z,9.762618
2023-05-21T00:48:50.469Z,9.762732
2023-05-21T00:49:50.471Z,9.762679
2023-05-21T00:50:51.452Z,9.762763
2023-05-21T00:51:50.449Z,9.762650
2023-05-21T00:52:50.446Z,9.762611
2023-05-21T00:53:50.422Z,9.762848
2023-05-21T00:54:50.411Z,9.762783
2023-05-21T00:55:50.418Z,9.762634
2023-05-21T00:56:50.397Z,9.762638
2023-05-21T00:57:50.394Z,9.762879
2023-05-21T00:58:50.366Z,9.762646
2023-05-21T00:59:50.370Z,9.762882
2023-05-21T01:00:50.451Z,9.762728
2023-05-21T01:01:50.451Z,9.762671
2023-05-21T01:02:50.416Z,9.762671
2023-05-21T01:03:50.324Z,9.762671
2023-05-21T01:04:50.331Z,9.762671
2023-05-21T01:05:50.297Z,9.762671
2023-05-21T01:06:50.307Z,9.762671
2023-05-21T01:07:50.285Z,9.762671
2023-05-21T01:08:50.276Z,9.762671
2023-05-21T01:09:50.261Z,9.762671
2023-05-21T01:10:50.258Z,9.762671
2023-05-21T01:11:50.262Z,9.762671
2023-05-21T01:12:50.240Z,9.762671
2023-05-21T01:13:50.233Z,9.762671
2023-05-21T01:14:50.216Z,9.762671
2023-05-21T01:15:50.218Z,9.762671
2023-05-21T01:16:50.267Z,9.762671
2023-05-21T01:17:50.210Z,9.762671
2023-05-21T01:18:50.273Z,9.762671
2023-05-21T01:19:50.244Z,9.762671
2023-05-21T01:20:50.199Z,9.762671
2023-05-21T01:21:50.149Z,9.762671
2023-05-21T01:22:50.142Z,9.762671
2023-05-21T01:23:50.132Z,9.762671
2023-05-21T01:24:50.119Z,9.762671
2023-05-21T01:25:50.116Z,9.762671
2023-05-21T01:26:50.102Z,9.762671
2023-05-21T01:27:50.095Z,9.762671
2023-05-21T01:28:50.079Z,9.762671
2023-05-21T01:29:50.089Z,9.762671
2023-05-21T01:30:50.074Z,9.762671
2023-05-21T01:31:50.063Z,9.762671
2023-05-21T01:32:50.144Z,9.762671
2023-05-21T01:33:50.087Z,9.762671
2023-05-21T01:34:50.040Z,9.762671
2023-05-21T01:35:50.014Z,9.762671
2023-05-21T01:36:50.001Z,9.762671
2023-05-21T01:37:50.003Z,9.762671
2023-05-21T01:38:49.994Z,9.762671
2023-05-21T01:39:49.996Z,9.762671
2023-05-21T01:40:49.974Z,9.762671
2023-05-21T01:41:49.959Z,9.762671
2023-05-21T01:42:49.958Z,9.762671
2023-05-21T01:43:49.955Z,9.762671
2023-05-21T01:44:49.939Z,9.762671
2023-05-21T01:45:49.924Z,9.762671
2023-05-21T01:46:50.046Z,9.762671
2023-05-21T01:47:49.954Z,9.762671
2023-05-21T01:48:49.900Z,9.762671
2023-05-21T01:49:49.889Z,9.762671
2023-05-21T01:50:49.885Z,9.762671
2023-05-21T01:51:49.861Z,9.762671
2023-05-21T01:52:49.855Z,9.762671
2023-05-21T01:53:49.863Z,9.762671
2023-05-21T01:54:49.832Z,9.762671
2023-05-21T01:55:49.818Z,9.762671
2023-05-21T01:56:49.828Z,9.762671
2023-05-21T01:57:49.804Z,9.762671
2023-05-21T01:58:49.816Z,9.762671
2023-05-21T01:59:49.779Z,9.762671
2023-05-21T02:00:49.773Z,9.762671
2023-05-21T02:01:49.858Z,9.762671
2023-05-21T02:02:49.791Z,9.762671
2023-05-21T02:03:49.809Z,9.762671
2023-05-21T02:04:49.733Z,9.762671
2023-05-21T02:05:49.728Z,9.762671
2023-05-21T02:06:49.740Z,9.762671
2023-05-21T02:07:49.741Z,9.762671
2023-05-21T02:08:49.701Z,9.762671
2023-05-21T02:09:49.693Z,9.762671
2023-05-21T02:10:49.672Z,9.762671
2023-05-21T02:11:49.658Z,9.762671
2023-05-21T02:12:49.672Z,9.762671
2023-05-21T02:13:49.643Z,9.762671
2023-05-21T02:14:49.639Z,9.762671
2023-05-21T02:15:49.647Z,9.762671
2023-05-21T02:16:49.622Z,9.762671
2023-05-21T02:17:49.673Z,9.762671
2023-05-21T02:18:49.613Z,9.762671
2023-05-21T02:19:49.577Z,9.762671
2023-05-21T02:20:49.587Z,9.762671
2023-05-21T02:21:49.574Z,9.762671
2023-05-21T02:22:49.545Z,9.762671
2023-05-21T02:23:49.549Z,9.762671
2023-05-21T02:24:49.532Z,9.762671
2023-05-21T02:25:49.524Z,9.762671
2023-05-21T02:26:49.527Z,9.762671
2023-05-21T02:27:49.514Z,9.762671
2023-05-21T02:28:49.498Z,9.762671
2023-05-21T02:29:49.492Z,9.762671
2023-05-21T02:30:49.475Z,9.762671
2023-05-21T02:31:49.478Z,9.762671
2023-05-21T02:32:49.472Z,9.762671
2023-05-21T02:33:49.455Z,9.762671
2023-05-21T02:34:49.434Z,9.762671
2023-05-21T02:35:49.442Z,9.762671
2023-05-21T02:36:49.454Z,9.762671
2023-05-21T02:37:49.406Z,9.762671
2023-05-21T02:38:49.389Z,9.762671
2023-05-21T02:39:49.385Z,9.762671
2023-05-21T02:40:49.388Z,9.762671
2023-05-21T02:41:49.361Z,9.762671
2023-05-21T02:42:49.356Z,9.762671
2023-05-21T02:43:49.344Z,9.762671
2023-05-21T02:44:49.339Z,9.762671
2023-05-21T02:45:49.361Z,9.762671
2023-05-21T02:46:49.320Z,9.762671
2023-05-21T02:47:49.323Z,9.762671
2023-05-21T02:48:49.301Z,9.762671
2023-05-21T02:49:49.299Z,9.762671
2023-05-21T02:50:49.282Z,9.762671
2023-05-21T02:51:49.254Z,9.762671
2023-05-21T02:52:50.259Z,9.762671
2023-05-21T02:53:49.237Z,9.762671
2023-05-21T02:54:49.254Z,9.762671
2023-05-21T02:55:49.218Z,9.762671
2023-05-21T02:56:49.207Z,9.762671
2023-05-21T02:57:49.196Z,9.762671
2023-05-21T02:58:49.195Z,9.762671
2023-05-21T02:59:49.197Z,9.762671
2023-05-21T03:00:49.173Z,9.762671
2023-05-21T03:01:49.243Z,9.762671
2023-05-21T03:02:49.240Z,9.762671
2023-05-21T03:03:49.200Z,9.762671
2023-05-21T03:04:50.149Z,9.762671
2023-05-21T03:05:49.136Z,9.762671
2023-05-21T03:06:49.112Z,9.762671
2023-05-21T03:07:49.120Z,9.762671
2023-05-21T03:08:49.091Z,9.762671
2023-05-21T03:09:49.110Z,9.762671
2023-05-21T03:10:49.070Z,9.762671
2023-05-21T03:11:49.071Z,9.762671
2023-05-21T03:12:49.067Z,9.762671
2023-05-21T03:13:49.092Z,9.762671
2023-05-21T03:14:49.053Z,9.762671
2023-05-21T03:15:49.030Z,9.762671
2023-05-21T03:16:49.113Z,9.762671
2023-05-21T03:17:49.050Z,9.762671
2023-05-21T03:18:49.019Z,9.762671
2023-05-21T03:19:49.004Z,9.762671
2023-05-21T03:20:48.962Z,9.762671
2023-05-21T03:21:49.973Z,9.762671
2023-05-21T03:22:48.955Z,9.762671
2023-05-21T03:23:48.963Z,9.762671
2023-05-21T03:24:48.939Z,9.762671
2023-05-21T03:25:48.940Z,9.762671
2023-05-21T03:26:48.914Z,9.762671
2023-05-21T03:27:48.914Z,9.762671
2023-05-21T03:28:48.912Z,9.762671
2023-05-21T03:29:48.882Z,9.762671
2023-05-21T03:30:48.878Z,9.762671
2023-05-21T03:31:48.951Z,9.762671
2023-05-21T03:32:48.875Z,9.762671
2023-05-21T03:33:48.865Z,9.762671
2023-05-21T03:34:48.853Z,9.762671
2023-05-21T03:35:48.833Z,9.762671
2023-05-21T03:36:48.821Z,9.762671
2023-05-21T03:37:48.813Z,9.762671
2023-05-21T03:38:48.810Z,9.762671
2023-05-21T03:39:48.794Z,9.762671
2023-05-21T03:40:48.771Z,9.762671
2023-05-21T03:41:48.778Z,9.762671
2023-05-21T03:42:48.778Z,9.762671
2023-05-21T03:43:48.746Z,9.762671
2023-05-21T03:44:48.738Z,9.762671
2023-05-21T03:45:48.757Z,9.762671
2023-05-21T03:46:48.718Z,9.762671
2023-05-21T03:47:48.751Z,9.762671
2023-05-21T03:48:48.708Z,9.762671
2023-05-21T03:49:48.685Z,9.762671
2023-05-21T03:50:48.682Z,9.762671
2023-05-21T03:51:48.681Z,9.762671
2023-05-21T03:52:48.666Z,9.762671
2023-05-21T03:53:48.641Z,9.762671
2023-05-21T03:54:48.636Z,9.762671
2023-05-21T03:55:48.624Z,9.762671
2023-05-21T03:56:48.630Z,9.762671
2023-05-21T03:57:48.614Z,9.762671
2023-05-21T03:58:48.602Z,9.762671
2023-05-21T03:59:48.589Z,9.762671
2023-05-21T04:00:48.577Z,9.762671
2023-05-21T04:01:48.578Z,9.762671
2023-05-21T04:02:48.649Z,9.762671
2023-05-21T04:03:48.773Z,9.762671
2023-05-21T04:04:48.574Z,9.762671
2023-05-21T04:05:48.540Z,9.762671
2023-05-21T04:06:48.533Z,9.762671
2023-05-21T04:07:48.508Z,9.762671
2023-05-21T04:08:48.498Z,9.762671
2023-05-21T04:09:48.488Z,9.762671
2023-05-21T04:10:48.513Z,9.762671
2023-05-21T04:11:48.490Z,9.762671
2023-05-21T04:12:48.471Z,9.762671
2023-05-21T04:13:48.454Z,9.762671
2023-05-21T04:14:48.433Z,9.762671
2023-05-21T04:15:48.456Z,9.762671
2023-05-21T04:16:48.419Z,9.762671
2023-05-21T04:17:48.471Z,9.762671
2023-05-21T04:18:48.411Z,9.762671
2023-05-21T04:19:48.402Z,9.762671
2023-05-21T04:20:48.385Z,9.762671
2023-05-21T04:21:48.368Z,9.762671
2023-05-21T04:22:48.368Z,9.762671
2023-05-21T04:23:48.363Z,9.762671
2023-05-21T04:24:48.328Z,9.762671
2023-05-21T04:25:48.332Z,9.762671
2023-05-21T04:26:48.313Z,9.762671
2023-05-21T04:27:48.302Z,9.762671
2023-05-21T04:28:48.292Z,9.762671
2023-05-21T04:29:50.656Z,9.762671
2023-05-21T04:30:48.278Z,9.762671
2023-05-21T04:31:48.349Z,9.762671
2023-05-21T04:32:48.357Z,9.762671
2023-05-21T04:33:48.248Z,9.762671
2023-05-21T04:34:48.244Z,9.762671
2023-05-21T04:35:48.215Z,9.762671
2023-05-21T04:36:48.226Z,9.762874
2023-05-21T04:37:48.196Z,9.762778
2023-05-21T04:38:48.188Z,9.762590
2023-05-21T04:39:48.198Z,9.762393
2023-05-21T04:40:48.164Z,9.763135
2023-05-21T04:41:48.161Z,9.763135
2023-05-21T04:42:48.147Z,9.763135
2023-05-21T04:43:48.129Z,9.763135
2023-05-21T04:44:48.146Z,9.763135
2023-05-21T04:45:48.129Z,9.763135
2023-05-21T04:46:48.133Z,9.763135
2023-05-21T04:47:48.161Z,9.763135
2023-05-21T04:48:48.102Z,9.763135
2023-05-21T04:49:48.105Z,9.763135
2023-05-21T04:50:48.070Z,9.763135
2023-05-21T04:51:48.063Z,9.763135
2023-05-21T04:52:48.043Z,9.763135
2023-05-21T04:53:49.054Z,9.763135
2023-05-21T04:54:48.026Z,9.763135
2023-05-21T04:55:48.071Z,9.763135
2023-05-21T04:56:48.012Z,9.763135
2023-05-21T04:57:48.003Z,9.763135
2023-05-21T04:58:48.069Z,9.763135
2023-05-21T04:59:47.983Z,9.763135
2023-05-21T05:00:47.991Z,9.763135
2023-05-21T05:01:47.959Z,9.763135
2023-05-21T05:02:48.038Z,9.763135
2023-05-21T05:03:48.000Z,9.763135
2023-05-21T05:04:47.938Z,9.763135
2023-05-21T05:05:47.938Z,9.763135
2023-05-21T05:06:47.914Z,9.763135
2023-05-21T05:07:47.922Z,9.763135
2023-05-21T05:08:47.901Z,9.763135
2023-05-21T05:09:48.888Z,9.763135
2023-05-21T05:10:47.887Z,9.763135
2023-05-21T05:11:47.863Z,9.763135
2023-05-21T05:12:47.878Z,9.763135
2023-05-21T05:13:47.851Z,9.763135
2023-05-21T05:14:47.850Z,9.763135
2023-05-21T05:15:49.632Z,9.763135
2023-05-21T05:16:48.874Z,9.763135
2023-05-21T05:17:47.904Z,9.763135
2023-05-21T05:18:47.825Z,9.763135
2023-05-21T05:19:47.787Z,9.763135
2023-05-21T05:20:47.778Z,9.763135
2023-05-21T05:21:47.775Z,9.763135
2023-05-21T05:22:47.770Z,9.866116
2023-05-21T05:23:47.754Z,9.862054
2023-05-21T05:24:47.739Z,9.855757
2023-05-21T05:25:47.735Z,9.852168
2023-05-21T05:26:47.759Z,9.857132
2023-05-21T05:27:47.727Z,9.856115
2023-05-21T05:28:47.699Z,9.856115
2023-05-21T05:29:47.699Z,9.856115
2023-05-21T05:30:47.731Z,9.856115
2023-05-21T05:31:47.683Z,9.856115
2023-05-21T05:32:47.684Z,9.856115
2023-05-21T05:33:47.649Z,9.856115
2023-05-21T05:34:47.645Z,9.856115
2023-05-21T05:35:47.628Z,9.856115
2023-05-21T05:36:47.635Z,9.856115
2023-05-21T05:37:47.615Z,9.856115
2023-05-21T05:38:47.608Z,9.856115
2023-05-21T05:39:47.588Z,9.856115
2023-05-21T05:40:47.584Z,9.856115
2023-05-21T05:41:47.590Z,9.856115
2023-05-21T05:42:47.670Z,9.856115
2023-05-21T05:43:47.566Z,9.856115
2023-05-21T05:44:47.546Z,9.856115
2023-05-21T05:45:47.596Z,9.856115
2023-05-21T05:46:47.651Z,9.856115
2023-05-21T05:47:47.560Z,9.856115
2023-05-21T05:48:47.498Z,9.856115
2023-05-21T05:49:47.493Z,9.856115
2023-05-21T05:50:47.496Z,9.856115
2023-05-21T05:51:47.474Z,9.856115
2023-05-21T05:52:47.452Z,9.856115
2023-05-21T05:53:47.451Z,9.856115
2023-05-21T05:54:47.456Z,9.856115
2023-05-21T05:55:47.437Z,9.856115
2023-05-21T05:56:47.428Z,9.856115
2023-05-21T05:57:47.420Z,9.762735
2023-05-21T05:58:47.403Z,9.762629
2023-05-21T05:59:47.398Z,9.762796
2023-05-21T06:00:47.375Z,9.762874
2023-05-21T06:01:47.370Z,9.762874
2023-05-21T06:02:47.416Z,9.762874
2023-05-21T06:03:47.506Z,9.762849
2023-05-21T06:04:47.366Z,9.762825
2023-05-21T06:05:47.369Z,9.762779
2023-05-21T06:06:47.322Z,9.762679
2023-05-21T06:07:47.323Z,9.762752
2023-05-21T06:08:47.306Z,9.762606
2023-05-21T06:09:47.316Z,9.762540
2023-05-21T06:10:47.285Z,9.762128
2023-05-21T06:11:47.280Z,9.762690
2023-05-21T06:12:47.266Z,9.762723
2023-05-21T06:13:47.270Z,9.762738
2023-05-21T06:14:47.263Z,9.762794
2023-05-21T06:15:47.297Z,9.762814
2023-05-21T06:16:47.223Z,9.762939
2023-05-21T06:17:47.266Z,9.762895
2023-05-21T06:18:47.247Z,9.762719
2023-05-21T06:19:47.192Z,9.762732
2023-05-21T06:20:47.198Z,9.762883
2023-05-21T06:21:47.185Z,9.762842
2023-05-21T06:22:47.162Z,9.762827
2023-05-21T06:23:47.162Z,9.762856
2023-05-21T06:24:47.151Z,9.762705
2023-05-21T06:25:47.137Z,9.762532
2023-05-21T06:26:47.120Z,9.762900
2023-05-21T06:27:47.117Z,9.762926
2023-05-21T06:28:47.111Z,9.762974
2023-05-21T06:29:47.085Z,9.762800
2023-05-21T06:30:47.090Z,9.762906
2023-05-21T06:31:47.076Z,9.762958
2023-05-21T06:32:47.131Z,9.763092
2023-05-21T06:33:47.137Z,9.762630
2023-05-21T06:34:47.052Z,9.762363
2023-05-21T06:35:47.028Z,9.762717
2023-05-21T06:36:47.032Z,9.762704
2023-05-21T06:37:47.023Z,9.762823
2023-05-21T06:38:46.995Z,9.762675
2023-05-21T06:39:47.006Z,9.762717
2023-05-21T06:40:46.983Z,9.762685
2023-05-21T06:41:47.204Z,9.762510
2023-05-21T06:42:46.975Z,9.762913
2023-05-21T06:43:46.950Z,9.762921
2023-05-21T06:44:46.949Z,9.762757
2023-05-21T06:45:46.948Z,9.762457
2023-05-21T06:46:46.937Z,9.762197
2023-05-21T06:47:46.991Z,9.762087
2023-05-21T06:48:46.909Z,9.762517
2023-05-21T06:49:46.895Z,9.762137
2023-05-21T06:50:46.888Z,9.763237
2023-05-21T06:51:46.884Z,9.764168
2023-05-21T06:52:46.860Z,9.763688
2023-05-21T06:53:46.853Z,9.762783
2023-05-21T06:54:46.851Z,9.763411
2023-05-21T06:55:46.861Z,9.765141
2023-05-21T06:56:46.867Z,9.767078
2023-05-21T06:57:46.830Z,9.767025
2023-05-21T06:58:46.806Z,9.767025
2023-05-21T06:59:46.794Z,9.767025
2023-05-21T07:00:46.846Z,9.767025
2023-05-21T07:01:47.925Z,9.767025
2023-05-21T07:02:47.035Z,9.767025
2023-05-21T07:03:46.795Z,9.767025
2023-05-21T07:04:46.762Z,9.767025
2023-05-21T07:05:46.745Z,9.767025
2023-05-21T07:06:46.915Z,9.767025
2023-05-21T07:07:46.715Z,9.767025
2023-05-21T07:08:46.706Z,9.767025
2023-05-21T07:09:46.692Z,9.767025
2023-05-21T07:10:46.704Z,9.767025
2023-05-21T07:11:46.674Z,9.767025
2023-05-21T07:12:46.669Z,9.767025
2023-05-21T07:13:46.656Z,9.767025
2023-05-21T07:14:46.655Z,9.767025
2023-05-21T07:15:46.654Z,9.767025
2023-05-21T07:16:46.695Z,9.767025
2023-05-21T07:17:46.669Z,9.767025
2023-05-21T07:18:46.626Z,9.767025
2023-05-21T07:19:46.613Z,9.767025
2023-05-21T07:20:46.603Z,9.767025
2023-05-21T07:21:46.574Z,9.767025
2023-05-21T07:22:46.567Z,9.767025
2023-05-21T07:23:46.566Z,9.767025
2023-05-21T07:24:46.560Z,9.767025
2023-05-21T07:25:46.548Z,9.767025
2023-05-21T07:26:46.528Z,9.767025
2023-05-21T07:27:46.523Z,9.767025
2023-05-21T07:28:46.527Z,9.767025
2023-05-21T07:29:46.514Z,9.767025
2023-05-21T07:30:46.508Z,9.767025
2023-05-21T07:31:46.479Z,9.767025
2023-05-21T07:32:46.514Z,9.767025
2023-05-21T07:33:46.455Z,9.767025
2023-05-21T07:34:46.467Z,9.767025
2023-05-21T07:35:46.441Z,9.767025
2023-05-21T07:36:46.434Z,9.767025
2023-05-21T07:37:46.456Z,9.767025
2023-05-21T07:38:46.415Z,9.767025
2023-05-21T07:39:46.408Z,9.767025
2023-05-21T07:40:46.393Z,9.767025
2023-05-21T07:41:46.385Z,9.767025
2023-05-21T07:42:46.377Z,9.767025
2023-05-21T07:43:46.367Z,9.767025
2023-05-21T07:44:46.361Z,9.767025
2023-05-21T07:45:46.345Z,9.767025
2023-05-21T07:46:46.432Z,9.767025
2023-05-21T07:47:46.368Z,9.767025
2023-05-21T07:48:46.315Z,9.767025
2023-05-21T07:49:46.353Z,9.763447
2023-05-21T07:50:46.309Z,9.763602
2023-05-21T07:51:46.290Z,9.763197
2023-05-21T07:52:46.358Z,9.762718
2023-05-21T07:53:46.268Z,9.763135
2023-05-21T07:54:46.269Z,9.762807
2023-05-21T07:55:46.256Z,9.762948
2023-05-21T07:56:46.250Z,9.763113
2023-05-21T07:57:46.230Z,9.763239
2023-05-21T07:58:46.240Z,9.762785
2023-05-21T07:59:46.217Z,9.762871
2023-05-21T08:00:46.199Z,9.762877
2023-05-21T08:01:46.195Z,9.763043
2023-05-21T08:02:46.237Z,9.762684
2023-05-21T08:03:46.294Z,9.763098
2023-05-21T08:04:46.194Z,9.763166
2023-05-21T08:05:46.156Z,9.762981
2023-05-21T08:06:46.150Z,9.762984
2023-05-21T08:07:47.139Z,9.763052
2023-05-21T08:08:46.136Z,9.762707
2023-05-21T08:09:46.126Z,9.762812
2023-05-21T08:10:46.101Z,9.762804
2023-05-21T08:11:46.097Z,9.762848
2023-05-21T08:12:46.098Z,9.762849
2023-05-21T08:13:46.113Z,9.762802
2023-05-21T08:14:46.062Z,9.762707
2023-05-21T08:15:46.060Z,9.762825
2023-05-21T08:16:46.174Z,9.762954
2023-05-21T08:17:46.080Z,9.762810
2023-05-21T08:18:46.036Z,9.762765
2023-05-21T08:19:46.015Z,9.762711
2023-05-21T08:20:46.008Z,9.762801
2023-05-21T08:21:46.023Z,9.762762
2023-05-21T08:22:46.013Z,9.762830
2023-05-21T08:23:45.975Z,9.762748
2023-05-21T08:24:45.977Z,9.762670
2023-05-21T08:25:45.975Z,9.762797
2023-05-21T08:26:45.981Z,9.762796
2023-05-21T08:27:45.958Z,9.762833
2023-05-21T08:28:45.931Z,9.762697
2023-05-21T08:29:45.924Z,9.762815
2023-05-21T08:30:45.920Z,9.762779
2023-05-21T08:31:46.003Z,9.762739
2023-05-21T08:32:45.924Z,9.762677
2023-05-21T08:33:45.888Z,9.762732
2023-05-21T08:34:45.873Z,9.762736
2023-05-21T08:35:45.877Z,9.762821
2023-05-21T08:36:45.864Z,9.762800
2023-05-21T08:37:45.851Z,9.762866
2023-05-21T08:38:45.944Z,9.762796
2023-05-21T08:39:45.823Z,9.762793
2023-05-21T08:40:45.835Z,9.762741
2023-05-21T08:41:45.810Z,9.762775
2023-05-21T08:42:45.801Z,9.762765
2023-05-21T08:43:47.385Z,9.762741
2023-05-21T08:44:45.847Z,9.762733
2023-05-21T08:45:45.873Z,9.762834
2023-05-21T08:46:45.823Z,9.762886
2023-05-21T08:47:45.809Z,9.762858
2023-05-21T08:48:45.795Z,9.762846
2023-05-21T08:49:45.781Z,9.762832
2023-05-21T08:50:45.775Z,9.762813
2023-05-21T08:51:45.753Z,9.762794
2023-05-21T08:52:45.791Z,9.762752
2023-05-21T08:53:45.762Z,9.762543
2023-05-21T08:54:45.789Z,9.762677
2023-05-21T08:55:45.777Z,9.762723
2023-05-21T08:56:45.733Z,9.762672
2023-05-21T08:57:45.766Z,9.762752
2023-05-21T08:58:45.744Z,9.762730
2023-05-21T08:59:45.690Z,9.762665
2023-05-21T09:00:45.664Z,9.762506
2023-05-21T09:01:45.753Z,9.762426
2023-05-21T09:02:45.700Z,9.762643
2023-05-21T09:03:46.689Z,9.762742
2023-05-21T09:04:45.738Z,9.762621
2023-05-21T09:05:45.650Z,9.762694
2023-05-21T09:06:45.628Z,9.762763
2023-05-21T09:07:45.629Z,9.762610
2023-05-21T09:08:45.603Z,9.762558
2023-05-21T09:09:45.628Z,9.762670
2023-05-21T09:10:45.593Z,9.762794
2023-05-21T09:11:45.591Z,9.762808
2023-05-21T09:12:45.552Z,9.762663
2023-05-21T09:13:45.609Z,9.762698
2023-05-21T09:14:45.641Z,9.762715
2023-05-21T09:15:45.526Z,9.762748
2023-05-21T09:16:45.600Z,9.762793
2023-05-21T09:17:45.620Z,9.762699
2023-05-21T09:18:45.587Z,9.762644
2023-05-21T09:19:45.530Z,9.762756
2023-05-21T09:20:45.471Z,9.762782
2023-05-21T09:21:45.474Z,9.762486
2023-05-21T09:22:45.499Z,9.762465
2023-05-21T09:23:45.522Z,9.762569
2023-05-21T09:24:45.472Z,9.762715
2023-05-21T09:25:45.459Z,9.762775
2023-05-21T09:26:45.567Z,9.762721
2023-05-21T09:27:45.533Z,9.762770
2023-05-21T09:28:45.465Z,9.762685
2023-05-21T09:29:45.442Z,9.762851
2023-05-21T09:30:45.472Z,9.762761
2023-05-21T09:31:45.612Z,9.762747
2023-05-21T09:32:45.425Z,9.762752
2023-05-21T09:33:45.411Z,9.762638
2023-05-21T09:34:45.385Z,9.762754
2023-05-21T09:35:45.360Z,9.762546
2023-05-21T09:36:45.369Z,9.762847
2023-05-21T09:37:45.352Z,9.762852
2023-05-21T09:38:45.351Z,9.763417
2023-05-21T09:39:45.300Z,9.763002
2023-05-21T09:40:45.332Z,9.762807
2023-05-21T09:41:45.309Z,9.762919
2023-05-21T09:42:45.317Z,9.762968
2023-05-21T09:43:45.302Z,9.762726
2023-05-21T09:44:45.305Z,9.762821
2023-05-21T09:45:45.316Z,9.762671
2023-05-21T09:46:45.317Z,9.762656
2023-05-21T09:47:45.268Z,9.762539
2023-05-21T09:48:45.240Z,9.762411
2023-05-21T09:49:45.214Z,9.762543
2023-05-21T09:50:45.237Z,9.762716
2023-05-21T09:51:45.190Z,9.762969
2023-05-21T09:52:45.165Z,9.762787
2023-05-21T09:53:45.159Z,9.762863
2023-05-21T09:54:45.173Z,9.762868
2023-05-21T09:55:45.168Z,9.762714
2023-05-21T09:56:45.149Z,9.762732
2023-05-21T09:57:45.133Z,9.762671
2023-05-21T09:58:45.140Z,9.762609
2023-05-21T09:59:45.103Z,9.762547
2023-05-21T10:00:45.226Z,9.762551
2023-05-21T10:01:45.231Z,9.762813
2023-05-21T10:02:45.198Z,9.762818
2023-05-21T10:03:45.166Z,9.762774
2023-05-21T10:04:45.244Z,9.762858
2023-05-21T10:05:45.146Z,9.762636
2023-05-21T10:06:45.029Z,9.762646
2023-05-21T10:07:45.046Z,9.762464
2023-05-21T10:08:45.039Z,9.762127
2023-05-21T10:09:45.021Z,9.762382
2023-05-21T10:10:45.044Z,9.762856
2023-05-21T10:11:45.042Z,9.763202
2023-05-21T10:12:44.981Z,9.762713
2023-05-21T10:13:44.980Z,9.762322
2023-05-21T10:14:45.020Z,9.762322
2023-05-21T10:15:45.044Z,9.762322
2023-05-21T10:16:45.042Z,9.762668
2023-05-21T10:17:45.001Z,9.762343
2023-05-21T10:18:44.976Z,9.760462
2023-05-21T10:19:44.974Z,9.762403
2023-05-21T10:20:44.942Z,9.762261
2023-05-21T10:21:47.270Z,9.762775
2023-05-21T10:22:45.896Z,9.762707
2023-05-21T10:23:48.611Z,9.762888
2023-05-21T10:24:45.626Z,9.763122
2023-05-21T10:25:44.888Z,9.763517
2023-05-21T10:26:44.879Z,9.763517
2023-05-21T10:27:44.919Z,9.763517
2023-05-21T10:28:44.910Z,9.763517
2023-05-21T10:29:44.932Z,9.763517
2023-05-21T10:30:44.886Z,9.763517
2023-05-21T10:31:44.856Z,9.763517
2023-05-21T10:32:44.990Z,9.763517
2023-05-21T10:33:44.817Z,9.763517
2023-05-21T10:34:44.803Z,9.763517
2023-05-21T10:35:44.829Z,9.763517
2023-05-21T10:36:44.797Z,9.763517
2023-05-21T10:37:44.795Z,9.763517
2023-05-21T10:38:44.805Z,9.762686
2023-05-21T10:39:44.775Z,9.762729
2023-05-21T10:40:44.747Z,9.762550
2023-05-21T10:41:46.646Z,9.762729
2023-05-21T10:42:44.724Z,9.762757
2023-05-21T10:43:44.748Z,9.762447
2023-05-21T10:44:44.725Z,9.762562
2023-05-21T10:45:44.714Z,9.762640
2023-05-21T10:46:44.771Z,9.762641
2023-05-21T10:47:44.698Z,9.762668
2023-05-21T10:48:44.676Z,9.762564
2023-05-21T10:49:44.661Z,9.762507
2023-05-21T10:50:44.621Z,9.762547
2023-05-21T10:51:44.672Z,9.762544
2023-05-21T10:52:44.714Z,9.762508
2023-05-21T10:53:44.660Z,9.762532
2023-05-21T10:54:44.608Z,9.762599
2023-05-21T10:55:44.618Z,9.762483
2023-05-21T10:56:44.600Z,9.762373
2023-05-21T10:57:44.605Z,9.762182
2023-05-21T10:58:44.587Z,9.761703
2023-05-21T10:59:44.580Z,9.761403
2023-05-21T11:00:44.594Z,9.760792
2023-05-21T11:01:44.655Z,9.760601
2023-05-21T11:02:44.643Z,9.760553
2023-05-21T11:03:44.614Z,9.760429
2023-05-21T11:04:44.537Z,9.760224
2023-05-21T11:05:44.531Z,9.759965
2023-05-21T11:06:44.535Z,9.759800
2023-05-21T11:07:44.513Z,9.759622
2023-05-21T11:08:45.596Z,9.759560
2023-05-21T11:09:44.454Z,9.760926
2023-05-21T11:10:44.515Z,9.761519
2023-05-21T11:11:44.437Z,9.761354
2023-05-21T11:12:44.416Z,9.762300
2023-05-21T11:13:44.392Z,9.762326
2023-05-21T11:14:44.396Z,9.762794
2023-05-21T11:15:44.379Z,9.762576
2023-05-21T11:16:44.408Z,9.762549
2023-05-21T11:17:44.424Z,9.762703
2023-05-21T11:18:44.500Z,9.762738
2023-05-21T11:19:44.431Z,9.762333
2023-05-21T11:20:44.352Z,9.762700
2023-05-21T11:21:44.359Z,9.762817
2023-05-21T11:22:44.340Z,9.762691
2023-05-21T11:23:44.322Z,9.762897
2023-05-21T11:24:44.316Z,9.762855
2023-05-21T11:25:44.318Z,9.762834
2023-05-21T11:26:44.305Z,9.762771
2023-05-21T11:27:44.307Z,9.762758
2023-05-21T11:28:44.266Z,9.762733
2023-05-21T11:29:44.307Z,9.762494
2023-05-21T11:30:44.520Z,9.762735
2023-05-21T11:31:44.290Z,9.763428
2023-05-21T11:32:44.271Z,9.762644
2023-05-21T11:33:44.234Z,9.762987
2023-05-21T11:34:44.199Z,9.762957
2023-05-21T11:35:44.203Z,9.762745
2023-05-21T11:36:44.185Z,9.762749
2023-05-21T11:37:44.175Z,9.762794
2023-05-21T11:38:44.158Z,9.762613
2023-05-21T11:39:44.169Z,9.762542
2023-05-21T11:40:44.154Z,9.762074
2023-05-21T11:41:44.147Z,9.762414
2023-05-21T11:42:44.155Z,9.762512
2023-05-21T11:43:45.131Z,9.762550
2023-05-21T11:44:44.130Z,9.762595
2023-05-21T11:45:44.107Z,9.762660
2023-05-21T11:46:44.168Z,9.762671
2023-05-21T11:47:44.165Z,9.762897
2023-05-21T11:48:44.083Z,9.762779
2023-05-21T11:49:44.074Z,9.762580
2023-05-21T11:50:44.053Z,9.762683
2023-05-21T11:51:44.059Z,9.762549
2023-05-21T11:52:44.046Z,9.762137
2023-05-21T11:53:44.419Z,9.762466
2023-05-21T11:54:45.035Z,9.762745
2023-05-21T11:55:44.013Z,9.762512
2023-05-21T11:56:44.036Z,9.762098
2023-05-21T11:57:43.998Z,9.762098
2023-05-21T11:58:44.013Z,9.761894
2023-05-21T11:59:43.997Z,9.762506
2023-05-21T12:00:43.964Z,9.763479
2023-05-21T12:01:43.961Z,9.763544
2023-05-21T12:02:44.002Z,9.762907
2023-05-21T12:03:44.099Z,9.762963